Terminal Aerodrome Forecast
Issued by NWS

Home | Current Version | Previous Version | Text Only | Print | Product List | Glossary On
Versions: 1 2 3 4 5 6 7 8 9 10 11 12 13 14
863
FTUS43 KIND 220521
TAFHUF
TAF
KHUF 220521Z 2206/2306 16008KT P6SM SCT200 WS020/19035KT
     FM220900 16007KT P6SM VCSH SCT250 WS020/20035KT
     FM221700 17014G23KT P6SM VCSH BKN090
     FM222100 17011G20KT P6SM -SHRA OVC035
     FM222200 18010KT 5SM -SHRA OVC030=

USA.gov is the U.S. government's official web portal to all federal, state and local government web resources and services.